LFOT/TUF METAR and TAF weather

Enter ICAO airport designator
Station Type Date Time Source
LFOT METAR 2019/04/23 04:30 UTC NOAA

LFOT 230430Z AUTO 16003KT CAVOK 14/11 Q0996 NOSIG


Station Type Date Time Source
LFOT Decoded METAR 2019/04/23 04:30 UTC NOAA

Tours, France (LFOT) 47-27N 000-43E 112M
Apr 23, 2019 - 12:30 AM EDT / 2019.04.23 0430 UTC
Wind: from the SSE (160 degrees) at 3 MPH (3 KT):0
Visibility: greater than 7 mile(s):0
Temperature: 57 F (14 C)
Dew Point: 51 F (11 C)
Relative Humidity: 82%
Pressure (altimeter): 29.41 in. Hg (0996 hPa)
ob: LFOT 230430Z AUTO 16003KT CAVOK 14/11 Q0996 NOSIG
cycle: 4

Station Type Date Time Source
LFOT TAF 2019/04/22 18:21 UTC NOAA

TAF LFOT 221700Z 2218/2318 12005KT CAVOK PROB30
TEMPO 2218/2220 VRB15G25KT -SHRA BKN070TCU PROB40
TEMPO 2309/2318 4000 SHRA SCT060CB PROB30
TEMPO 2315/2318 TSRA

Example: see airport list